createdAt,value
2018-08-24T00:01:02.762Z,75.82
2018-08-24T00:03:31.760Z,75.86
2018-08-24T00:06:00.727Z,76.59
2018-08-24T00:08:29.598Z,75.18
2018-08-24T00:10:58.502Z,75.50
2018-08-24T00:13:27.519Z,75.24
2018-08-24T00:15:56.560Z,76.22
2018-08-24T00:18:25.425Z,76.28
2018-08-24T00:20:54.430Z,76.18
2018-08-24T00:23:23.428Z,74.92
2018-08-24T00:25:52.341Z,75.85
2018-08-24T00:28:21.270Z,74.84
2018-08-24T00:30:50.137Z,75.08
2018-08-24T00:33:19.097Z,74.94
2018-08-24T00:35:48.003Z,74.52
2018-08-24T00:38:16.884Z,74.57
2018-08-24T00:40:45.844Z,73.68
2018-08-24T00:43:14.719Z,73.62
2018-08-24T00:45:43.661Z,73.66
2018-08-24T00:48:12.618Z,74.08
2018-08-24T00:50:41.554Z,73.45
2018-08-24T00:53:10.468Z,72.74
2018-08-24T00:55:39.478Z,73.35
2018-08-24T00:58:08.432Z,73.22
2018-08-24T01:00:43.909Z,73.54
2018-08-24T01:03:14.472Z,74.26
2018-08-24T01:05:43.403Z,73.78
2018-08-24T01:08:12.396Z,74.29
2018-08-24T01:10:41.872Z,73.81
2018-08-24T01:13:13.852Z,73.82
2018-08-24T01:15:48.679Z,73.54
2018-08-24T01:18:20.281Z,73.58
2018-08-24T01:20:52.162Z,73.33
2018-08-24T01:23:22.793Z,73.49
2018-08-24T01:25:51.775Z,74.08
2018-08-24T01:28:21.097Z,73.12
2018-08-24T01:30:50.330Z,73.93
2018-08-24T01:33:19.554Z,74.16
2018-08-24T01:35:48.844Z,74.70
2018-08-24T01:38:17.834Z,74.45
2018-08-24T01:40:46.743Z,74.42
2018-08-24T01:43:15.635Z,74.96
2018-08-24T01:45:44.739Z,74.55
2018-08-24T01:48:13.737Z,73.98
2018-08-24T01:50:42.794Z,74.71
2018-08-24T01:53:11.870Z,74.69
2018-08-24T01:55:40.891Z,74.35
2018-08-24T01:58:09.793Z,74.24
2018-08-24T02:00:38.844Z,73.91
2018-08-24T02:03:07.893Z,74.10
2018-08-24T02:05:36.779Z,74.50
2018-08-24T02:08:05.835Z,75.26
2018-08-24T02:10:34.726Z,75.00
2018-08-24T02:13:09.165Z,74.52
2018-08-24T02:15:43.258Z,74.45
2018-08-24T02:18:17.800Z,75.16
2018-08-24T02:20:51.929Z,75.36
2018-08-24T02:23:20.993Z,75.01
2018-08-24T02:25:49.848Z,74.87
2018-08-24T02:28:18.813Z,75.43
2018-08-24T02:30:47.790Z,75.44
2018-08-24T02:33:16.785Z,76.12
2018-08-24T02:35:45.632Z,76.06
2018-08-24T02:38:14.605Z,75.68
2018-08-24T02:40:43.484Z,75.57
2018-08-24T02:43:12.435Z,75.88
2018-08-24T02:45:41.339Z,75.93
2018-08-24T02:48:10.305Z,75.86
2018-08-24T02:50:39.238Z,75.67
2018-08-24T02:53:08.152Z,76.70
2018-08-24T02:55:37.039Z,76.59
2018-08-24T02:58:06.046Z,76.58
2018-08-24T03:00:34.940Z,76.93
2018-08-24T03:03:03.824Z,76.56
2018-08-24T03:05:33.000Z,76.87
2018-08-24T03:08:01.876Z,77.13
2018-08-24T03:10:30.868Z,76.55
2018-08-24T03:12:59.938Z,77.15
2018-08-24T03:15:28.827Z,77.22
2018-08-24T03:17:57.715Z,77.44
2018-08-24T03:20:26.739Z,77.43
2018-08-24T03:22:55.932Z,77.24
2018-08-24T03:25:24.840Z,77.54
2018-08-24T03:27:53.801Z,77.26
2018-08-24T03:30:22.716Z,77.54
2018-08-24T03:32:51.653Z,77.50
2018-08-24T03:35:20.542Z,77.47
2018-08-24T03:37:49.412Z,76.95
2018-08-24T03:40:18.683Z,77.44
2018-08-24T03:42:47.551Z,78.00
2018-08-24T03:45:16.473Z,77.96
2018-08-24T03:47:45.407Z,77.74
2018-08-24T03:50:19.164Z,77.93
2018-08-24T03:52:48.122Z,78.28
2018-08-24T03:55:16.974Z,78.14
2018-08-24T03:57:45.837Z,78.65
2018-08-24T04:00:17.114Z,76.86
2018-08-24T04:02:46.499Z,76.90
2018-08-24T04:05:16.099Z,77.33
2018-08-24T04:07:45.067Z,77.43
2018-08-24T04:10:13.927Z,78.36
2018-08-24T04:12:42.845Z,77.94
2018-08-24T04:15:11.791Z,77.54
2018-08-24T04:17:42.970Z,78.13
2018-08-24T04:20:12.365Z,78.10
2018-08-24T04:22:41.314Z,77.69
2018-08-24T04:25:10.677Z,77.77
2018-08-24T04:27:40.016Z,78.21
2018-08-24T04:30:09.494Z,78.13
2018-08-24T04:32:38.479Z,78.05
2018-08-24T04:35:07.525Z,78.50
2018-08-24T04:37:36.649Z,77.82
2018-08-24T04:40:05.773Z,78.72
2018-08-24T04:42:34.814Z,78.03
2018-08-24T04:45:03.742Z,78.01
2018-08-24T04:47:32.685Z,78.18
2018-08-24T04:50:01.631Z,78.72
2018-08-24T04:52:30.659Z,79.24
2018-08-24T04:54:59.567Z,80.13
2018-08-24T04:57:28.524Z,80.00
2018-08-24T04:59:57.424Z,81.12
2018-08-24T05:02:26.289Z,81.14
2018-08-24T05:04:55.270Z,80.96
2018-08-24T05:07:24.263Z,80.24
2018-08-24T05:09:53.117Z,79.23
2018-08-24T05:12:22.211Z,79.14
2018-08-24T05:14:51.111Z,77.50
2018-08-24T05:17:20.003Z,76.38
2018-08-24T05:19:48.962Z,75.99
2018-08-24T05:22:17.849Z,75.68
2018-08-24T05:24:46.912Z,75.03
2018-08-24T05:27:15.819Z,75.01
2018-08-24T05:29:44.810Z,75.23
2018-08-24T05:32:13.714Z,75.88
2018-08-24T05:34:42.687Z,74.79
2018-08-24T05:37:11.564Z,75.33
2018-08-24T05:39:40.473Z,75.08
2018-08-24T05:42:09.417Z,75.29
2018-08-24T05:44:38.286Z,75.37
2018-08-24T05:47:07.603Z,76.47
2018-08-24T05:49:36.599Z,76.11
2018-08-24T05:52:05.499Z,75.57
2018-08-24T05:54:34.417Z,75.67
2018-08-24T05:57:03.380Z,74.76
2018-08-24T05:59:32.272Z,74.72
2018-08-24T06:02:01.152Z,74.98
2018-08-24T06:04:30.092Z,74.12
2018-08-24T06:06:58.972Z,74.26
2018-08-24T06:09:27.858Z,72.83
2018-08-24T06:11:56.779Z,73.25
2018-08-24T06:14:25.650Z,72.41
2018-08-24T06:17:00.026Z,72.18
2018-08-24T06:19:28.913Z,71.34
2018-08-24T06:21:57.791Z,71.88
2018-08-24T06:24:26.819Z,70.83
2018-08-24T06:26:55.749Z,70.24
2018-08-24T06:29:24.647Z,70.66
2018-08-24T06:31:53.605Z,70.27
2018-08-24T06:34:22.532Z,70.57
2018-08-24T06:36:51.477Z,70.37
2018-08-24T06:39:20.416Z,71.12
2018-08-24T06:41:49.420Z,71.72
2018-08-24T06:44:18.333Z,71.07
2018-08-24T06:46:47.260Z,72.44
2018-08-24T06:49:16.223Z,71.67
2018-08-24T06:51:45.139Z,71.41
2018-08-24T06:54:14.113Z,71.53
2018-08-24T06:56:43.004Z,71.39
2018-08-24T06:59:11.914Z,71.65
2018-08-24T07:01:40.972Z,71.25
2018-08-24T07:04:09.904Z,70.73
2018-08-24T07:06:38.851Z,70.92
2018-08-24T07:16:56.194Z,69.89
2018-08-24T07:19:25.154Z,69.94
2018-08-24T07:21:54.059Z,70.44
2018-08-24T07:24:23.333Z,70.63
2018-08-24T07:26:52.280Z,70.28
2018-08-24T07:29:21.230Z,69.91
2018-08-24T07:31:50.094Z,69.78
2018-08-24T07:34:19.446Z,70.11
2018-08-24T07:36:48.430Z,71.17
2018-08-24T07:39:17.301Z,70.70
2018-08-24T07:41:46.299Z,69.89
2018-08-24T07:44:15.207Z,69.78
2018-08-24T07:46:44.150Z,69.56
2018-08-24T07:49:13.084Z,70.33
2018-08-24T07:51:41.996Z,69.88
2018-08-24T07:54:10.901Z,70.29
2018-08-24T07:56:39.804Z,68.93
2018-08-24T07:59:08.773Z,69.18
2018-08-24T08:01:37.653Z,68.96
2018-08-24T08:04:06.663Z,69.40
2018-08-24T08:06:35.554Z,69.80
2018-08-24T08:09:06.270Z,69.32
2018-08-24T08:11:39.260Z,69.59
2018-08-24T08:14:08.338Z,68.99
2018-08-24T08:16:37.201Z,68.85
2018-08-24T08:19:06.152Z,69.35
2018-08-24T08:21:35.025Z,69.18
2018-08-24T08:24:04.014Z,69.02
2018-08-24T08:26:32.978Z,68.85
2018-08-24T08:29:01.887Z,68.05
2018-08-24T08:31:30.914Z,68.27
2018-08-24T08:33:59.817Z,68.29
2018-08-24T08:36:28.838Z,68.17
2018-08-24T08:38:57.754Z,67.38
2018-08-24T08:41:26.602Z,67.12
2018-08-24T08:43:55.557Z,67.41
2018-08-24T08:46:24.464Z,67.92
2018-08-24T08:48:53.399Z,67.35
2018-08-24T08:51:22.346Z,67.36
2018-08-24T08:53:51.287Z,67.47
2018-08-24T08:56:20.167Z,67.38
2018-08-24T08:58:49.221Z,66.89
2018-08-24T09:01:18.072Z,67.18
2018-08-24T09:03:46.975Z,67.44
2018-08-24T09:06:15.928Z,66.85
2018-08-24T09:08:44.875Z,66.23
2018-08-24T09:11:13.755Z,66.85
2018-08-24T09:13:42.701Z,65.62
2018-08-24T09:16:11.574Z,65.37
2018-08-24T09:18:45.938Z,65.94
2018-08-24T09:21:20.071Z,65.70
2018-08-24T09:23:54.288Z,65.01
2018-08-24T09:26:28.566Z,65.38
2018-08-24T09:28:58.554Z,65.15
2018-08-24T09:31:30.233Z,64.97
2018-08-24T09:33:59.504Z,63.88
2018-08-24T09:36:28.365Z,64.62
2018-08-24T09:38:57.254Z,64.78
2018-08-24T09:41:26.211Z,64.64
2018-08-24T09:43:55.307Z,63.69
2018-08-24T09:46:29.624Z,63.84
2018-08-24T09:49:03.939Z,63.76
2018-08-24T09:51:32.887Z,63.23
2018-08-24T09:54:05.796Z,63.75
2018-08-24T09:56:35.798Z,63.34
2018-08-24T09:59:04.724Z,64.13
2018-08-24T10:01:39.199Z,63.89
2018-08-24T10:04:13.571Z,63.37
2018-08-24T10:06:47.978Z,62.73
2018-08-24T10:09:16.827Z,63.31
2018-08-24T10:11:45.685Z,62.62
2018-08-24T10:14:14.642Z,63.39
2018-08-24T10:16:43.555Z,62.88
2018-08-24T10:19:13.526Z,62.93
2018-08-24T10:21:42.491Z,63.36
2018-08-24T10:24:11.588Z,62.25
2018-08-24T10:26:40.900Z,62.47
2018-08-24T10:29:09.998Z,62.75
2018-08-24T10:31:38.829Z,63.48
2018-08-24T10:34:08.122Z,64.06
2018-08-24T10:36:37.076Z,64.04
2018-08-24T10:39:08.508Z,62.55
2018-08-24T10:41:37.280Z,62.57
2018-08-24T10:44:06.358Z,63.31
2018-08-24T10:46:35.265Z,63.97
2018-08-24T10:49:04.229Z,64.41
2018-08-24T10:51:33.129Z,65.81
2018-08-24T10:54:02.013Z,66.92
2018-08-24T10:56:31.234Z,70.08
2018-08-24T10:59:00.239Z,70.86
2018-08-24T11:01:29.116Z,72.46
2018-08-24T11:03:58.074Z,72.79
2018-08-24T11:06:27.045Z,70.75
2018-08-24T11:08:56.093Z,69.72
2018-08-24T11:11:25.216Z,69.67
2018-08-24T11:13:54.106Z,69.74
2018-08-24T11:16:22.969Z,69.16
2018-08-24T11:18:51.936Z,68.95
2018-08-24T11:21:20.809Z,69.55
2018-08-24T11:23:49.708Z,70.08
2018-08-24T11:26:18.941Z,69.51
2018-08-24T11:28:48.369Z,69.85
2018-08-24T11:31:36.479Z,70.51
2018-08-24T11:34:05.817Z,70.20
2018-08-24T11:36:34.846Z,69.71
2018-08-24T11:39:05.036Z,69.85
2018-08-24T11:41:33.907Z,69.94
2018-08-24T11:44:02.772Z,70.96
2018-08-24T11:46:31.689Z,69.43
2018-08-24T11:49:00.601Z,69.51
2018-08-24T11:51:29.449Z,70.34
2018-08-24T11:53:58.403Z,69.92
2018-08-24T11:56:27.252Z,69.19
2018-08-24T11:58:56.189Z,68.13
2018-08-24T12:01:25.102Z,67.57
2018-08-24T12:03:54.045Z,67.72
2018-08-24T12:06:22.942Z,65.43
2018-08-24T12:08:51.991Z,64.38
2018-08-24T12:11:20.852Z,63.38
2018-08-24T12:13:49.872Z,62.95
2018-08-24T12:16:18.802Z,62.71
2018-08-24T12:18:47.686Z,62.01
2018-08-24T12:21:16.772Z,62.35
2018-08-24T12:23:45.600Z,62.79
2018-08-24T12:26:14.477Z,62.90
2018-08-24T12:28:43.380Z,62.86
2018-08-24T12:31:12.334Z,63.06
2018-08-24T12:33:41.236Z,61.92
2018-08-24T12:36:13.783Z,62.30
2018-08-24T12:38:43.181Z,59.12
2018-08-24T12:41:12.528Z,58.45
2018-08-24T12:43:41.503Z,55.65
2018-08-24T12:46:10.496Z,55.24
2018-08-24T12:48:39.319Z,54.77
2018-08-24T12:51:08.377Z,54.35
2018-08-24T12:53:37.477Z,55.38
2018-08-24T12:56:10.754Z,52.92
2018-08-24T12:58:39.632Z,54.24
2018-08-24T13:01:08.572Z,53.69
2018-08-24T13:03:37.647Z,50.50
2018-08-24T13:06:06.508Z,51.43
2018-08-24T13:08:35.443Z,50.20
2018-08-24T13:11:04.641Z,50.82
2018-08-24T13:13:34.105Z,51.04
2018-08-24T13:16:02.995Z,48.57
2018-08-24T13:18:31.959Z,45.90
2018-08-24T13:21:00.837Z,46.54
2018-08-24T13:23:29.719Z,46.04
2018-08-24T13:25:58.684Z,45.35
2018-08-24T13:28:27.567Z,43.30
2018-08-24T13:30:56.444Z,41.34
2018-08-24T13:33:25.378Z,41.66
2018-08-24T13:35:54.268Z,42.09
2018-08-24T13:38:23.142Z,41.08
2018-08-24T13:40:52.085Z,41.10
2018-08-24T13:43:20.981Z,41.18
2018-08-24T13:45:49.864Z,41.83
2018-08-24T13:48:18.841Z,40.45
2018-08-24T13:50:47.703Z,42.00
2018-08-24T13:53:16.708Z,42.85
2018-08-24T13:55:45.681Z,42.34
2018-08-24T13:58:14.571Z,42.26
2018-08-24T14:00:43.667Z,42.52
2018-08-24T14:03:14.158Z,43.13
2018-08-24T14:05:43.105Z,43.40
2018-08-24T14:08:12.011Z,44.22
2018-08-24T14:10:40.975Z,44.66
2018-08-24T14:13:09.910Z,45.50
2018-08-24T14:15:38.767Z,46.16
2018-08-24T14:18:07.986Z,46.75
2018-08-24T14:20:36.853Z,46.84
2018-08-24T14:23:05.892Z,46.43
2018-08-24T14:25:34.816Z,46.26
2018-08-24T14:28:03.673Z,45.51
2018-08-24T14:30:32.629Z,45.09
2018-08-24T14:33:01.517Z,45.00
2018-08-24T14:35:30.400Z,44.93
2018-08-24T14:37:59.304Z,45.73
2018-08-24T14:40:28.219Z,45.28
2018-08-24T14:42:57.110Z,46.03
2018-08-24T14:45:26.150Z,45.32
2018-08-24T14:47:55.154Z,45.52
2018-08-24T14:50:24.162Z,45.59
2018-08-24T14:52:53.192Z,47.72
2018-08-24T14:55:22.092Z,49.52
2018-08-24T14:57:50.992Z,51.55
2018-08-24T15:00:19.982Z,51.64
2018-08-24T15:02:48.843Z,51.97
2018-08-24T15:05:17.844Z,52.26
2018-08-24T15:07:46.772Z,53.01
2018-08-24T15:10:15.648Z,52.10
2018-08-24T15:12:44.524Z,51.80
2018-08-24T15:15:13.488Z,51.74
2018-08-24T15:17:42.390Z,51.41
2018-08-24T15:20:11.277Z,51.90
2018-08-24T15:22:40.217Z,52.40
2018-08-24T15:25:09.130Z,51.15
2018-08-24T15:27:37.992Z,51.34
2018-08-24T15:30:07.000Z,51.51
2018-08-24T15:32:35.888Z,52.06
2018-08-24T15:35:04.792Z,52.28
2018-08-24T15:37:33.768Z,52.27
2018-08-24T15:40:02.642Z,52.49
2018-08-24T15:42:31.519Z,51.58
2018-08-24T15:45:00.434Z,51.51
2018-08-24T15:47:29.358Z,51.15
2018-08-24T15:49:58.251Z,51.37
2018-08-24T15:52:27.291Z,51.73
2018-08-24T15:54:56.231Z,51.80
2018-08-24T15:57:25.081Z,51.66
2018-08-24T15:59:54.140Z,51.28
2018-08-24T16:02:23.088Z,51.78
2018-08-24T16:04:52.020Z,52.02
2018-08-24T16:07:21.058Z,51.50
2018-08-24T16:09:49.933Z,51.91
2018-08-24T16:12:18.919Z,52.28
2018-08-24T16:14:47.805Z,52.25
2018-08-24T16:17:17.174Z,53.25
2018-08-24T16:19:46.077Z,52.39
2018-08-24T16:22:15.051Z,51.90
2018-08-24T16:24:44.136Z,52.39
2018-08-24T16:27:17.649Z,51.98
2018-08-24T16:29:46.527Z,52.56
2018-08-24T16:32:15.432Z,52.29
2018-08-24T16:34:44.496Z,51.97
2018-08-24T16:37:13.383Z,51.59
2018-08-24T16:39:42.247Z,52.28
2018-08-24T16:42:11.226Z,52.01
2018-08-24T16:44:40.102Z,51.59
2018-08-24T16:47:08.989Z,52.24
2018-08-24T16:49:37.959Z,52.45
2018-08-24T16:52:06.821Z,51.71
2018-08-24T16:54:35.717Z,52.15
2018-08-24T16:57:04.799Z,52.06
2018-08-24T16:59:33.689Z,51.40
2018-08-24T17:02:02.556Z,52.06
2018-08-24T17:04:31.525Z,51.29
2018-08-24T17:07:00.423Z,51.34
2018-08-24T17:09:29.292Z,51.71
2018-08-24T17:11:58.246Z,51.28
2018-08-24T17:14:27.229Z,51.59
2018-08-24T17:16:56.108Z,51.11
2018-08-24T17:19:25.081Z,51.39
2018-08-24T17:21:53.928Z,52.03
2018-08-24T17:24:22.840Z,52.22
2018-08-24T17:26:51.807Z,53.01
2018-08-24T17:29:20.698Z,52.13
2018-08-24T17:31:49.602Z,52.31
2018-08-24T17:34:18.706Z,52.37
2018-08-24T17:36:47.604Z,52.32
2018-08-24T17:39:16.556Z,52.50
2018-08-24T17:41:45.593Z,52.81
2018-08-24T17:44:14.454Z,53.07
2018-08-24T17:46:43.395Z,53.03
2018-08-24T17:49:12.388Z,52.90
2018-08-24T17:51:41.288Z,53.06
2018-08-24T17:54:10.190Z,52.61
2018-08-24T17:56:39.181Z,52.58
2018-08-24T17:59:08.084Z,53.07
2018-08-24T18:01:37.011Z,52.59
2018-08-24T18:04:06.456Z,52.21
2018-08-24T18:06:35.493Z,51.38
2018-08-24T18:09:07.501Z,51.99
2018-08-24T18:11:36.665Z,51.33
2018-08-24T18:14:06.273Z,51.29
2018-08-24T18:16:36.110Z,51.32
2018-08-24T18:19:06.203Z,51.40
2018-08-24T18:21:35.385Z,51.20
2018-08-24T18:24:04.289Z,51.45
2018-08-24T18:26:33.192Z,51.07
2018-08-24T18:29:02.239Z,51.35
2018-08-24T18:31:31.151Z,51.49
2018-08-24T18:34:00.068Z,51.44
2018-08-24T18:36:29.053Z,51.79
2018-08-24T18:38:57.995Z,51.28
2018-08-24T18:41:26.883Z,51.20
2018-08-24T18:43:55.963Z,51.68
2018-08-24T18:46:24.883Z,52.14
2018-08-24T18:48:53.831Z,53.17
2018-08-24T18:51:22.850Z,52.53
2018-08-24T18:53:51.745Z,53.02
2018-08-24T18:56:20.667Z,52.85
2018-08-24T18:58:49.684Z,52.62
2018-08-24T19:01:18.712Z,52.67
2018-08-24T19:03:47.634Z,52.72
2018-08-24T19:06:16.688Z,52.79
2018-08-24T19:08:45.628Z,53.19
2018-08-24T19:11:20.011Z,52.75
2018-08-24T19:13:48.995Z,52.65
2018-08-24T19:16:17.881Z,53.37
2018-08-24T19:18:52.339Z,53.70
2018-08-24T19:21:26.631Z,53.41
2018-08-24T19:23:55.612Z,53.30
2018-08-24T19:26:24.862Z,53.44
2018-08-24T19:28:59.225Z,53.04
2018-08-24T19:31:28.126Z,53.29
2018-08-24T19:33:57.057Z,53.91
2018-08-24T19:36:26.090Z,53.70
2018-08-24T19:38:55.008Z,53.55
2018-08-24T19:41:29.560Z,54.64
2018-08-24T19:43:58.623Z,54.65
2018-08-24T19:46:27.422Z,56.92
2018-08-24T19:49:01.739Z,57.41
2018-08-24T19:51:30.645Z,57.56
2018-08-24T19:53:59.562Z,56.72
2018-08-24T19:56:28.576Z,59.62
2018-08-24T19:59:04.228Z,61.45
2018-08-24T20:01:34.167Z,61.96
2018-08-24T20:04:03.925Z,63.41
2018-08-24T20:06:38.250Z,63.74
2018-08-24T20:09:15.099Z,63.94
2018-08-24T20:11:46.743Z,63.62
2018-08-24T20:14:15.883Z,63.72
2018-08-24T20:16:50.243Z,63.16
2018-08-24T20:19:19.227Z,64.18
2018-08-24T20:21:49.050Z,65.17
2018-08-24T20:24:18.329Z,64.89
2018-08-24T20:26:48.215Z,64.78
2018-08-24T20:29:17.228Z,66.07
2018-08-24T20:31:46.280Z,66.97
2018-08-24T20:34:15.326Z,65.32
2018-08-24T20:36:44.452Z,64.85
2018-08-24T20:39:13.478Z,66.18
2018-08-24T20:41:42.588Z,65.16
2018-08-24T20:44:11.623Z,64.74
2018-08-24T20:46:41.119Z,65.50
2018-08-24T20:49:10.504Z,65.82
2018-08-24T20:51:39.368Z,65.51
2018-08-24T20:54:08.375Z,65.76
2018-08-24T20:56:37.268Z,66.59
2018-08-24T20:59:06.243Z,66.79
2018-08-24T21:01:35.235Z,65.86
2018-08-24T21:04:04.138Z,66.60
2018-08-24T21:06:33.839Z,66.86
2018-08-24T21:09:02.796Z,67.47
2018-08-24T21:11:31.762Z,67.55
2018-08-24T21:14:00.648Z,67.45
2018-08-24T21:16:29.672Z,68.13
2018-08-24T21:18:58.524Z,69.33
2018-08-24T21:21:27.395Z,67.98
2018-08-24T21:23:56.341Z,68.46
2018-08-24T21:26:25.208Z,68.82
2018-08-24T21:28:54.088Z,69.36
2018-08-24T21:31:23.028Z,68.55
2018-08-24T21:33:51.908Z,68.16
2018-08-24T21:36:25.052Z,69.12
2018-08-24T21:38:55.213Z,69.02
2018-08-24T21:41:24.285Z,68.25
2018-08-24T21:43:53.239Z,68.12
2018-08-24T21:46:22.158Z,69.41
2018-08-24T21:48:51.085Z,69.26
2018-08-24T21:51:20.052Z,69.42
2018-08-24T21:53:49.096Z,69.63
2018-08-24T21:56:17.995Z,69.71
2018-08-24T21:58:47.065Z,69.77
2018-08-24T22:01:15.956Z,70.19
2018-08-24T22:03:44.868Z,68.51
2018-08-24T22:06:13.854Z,67.11
2018-08-24T22:08:42.795Z,66.43
2018-08-24T22:11:11.667Z,66.08
2018-08-24T22:13:40.857Z,66.81
2018-08-24T22:16:09.756Z,65.58
2018-08-24T22:18:38.685Z,66.10
2018-08-24T22:21:07.607Z,65.07
2018-08-24T22:23:40.160Z,64.43
2018-08-24T22:26:09.879Z,65.07
2018-08-24T22:28:40.598Z,64.39
2018-08-24T22:31:10.226Z,63.67
2018-08-24T22:33:39.134Z,63.92
2018-08-24T22:36:08.124Z,64.58
2018-08-24T22:38:37.194Z,64.29
2018-08-24T22:41:06.376Z,63.86
2018-08-24T22:43:35.823Z,63.76
2018-08-24T22:46:05.629Z,63.67
2018-08-24T22:48:34.601Z,64.08
2018-08-24T22:51:04.331Z,63.38
2018-08-24T22:53:33.314Z,64.16
2018-08-24T22:56:02.213Z,63.78
2018-08-24T22:58:31.096Z,64.25
2018-08-24T23:01:00.099Z,64.58
2018-08-24T23:03:29.017Z,63.45
2018-08-24T23:05:57.898Z,64.37
2018-08-24T23:11:28.863Z,65.00
2018-08-24T23:13:58.264Z,65.75
2018-08-24T23:16:27.143Z,66.10
2018-08-24T23:18:56.019Z,66.54
2018-08-24T23:21:24.982Z,67.00
2018-08-24T23:23:53.877Z,67.23
2018-08-24T23:26:22.760Z,67.18
2018-08-24T23:28:51.707Z,66.88
2018-08-24T23:31:20.632Z,67.83
2018-08-24T23:33:49.534Z,67.79
2018-08-24T23:36:18.500Z,67.17
2018-08-24T23:38:47.418Z,67.75
2018-08-24T23:41:16.290Z,67.88
2018-08-24T23:43:45.212Z,67.42
2018-08-24T23:46:14.091Z,68.04
2018-08-24T23:48:42.953Z,67.82
2018-08-24T23:51:11.942Z,67.61
2018-08-24T23:53:40.802Z,67.31
2018-08-24T23:56:09.696Z,67.73
2018-08-24T23:58:38.705Z,68.01
